createdAt,value
2019-01-25T00:00:07.268Z,-1.05
2019-01-25T00:02:35.978Z,-1.12
2019-01-25T00:05:06.077Z,-0.84
2019-01-25T00:07:34.666Z,-0.61
2019-01-25T00:10:03.459Z,-0.60
2019-01-25T00:12:32.109Z,-0.29
2019-01-25T00:15:00.663Z,0.02
2019-01-25T00:17:29.256Z,0.00
2019-01-25T00:19:57.845Z,-0.01
2019-01-25T00:22:26.363Z,0.02
2019-01-25T00:24:54.890Z,-0.07
2019-01-25T00:27:23.428Z,-0.34
2019-01-25T00:29:52.048Z,-0.55
2019-01-25T00:32:20.680Z,-0.63
2019-01-25T00:34:49.268Z,-0.61
2019-01-25T00:37:17.734Z,-0.97
2019-01-25T00:39:46.355Z,-1.06
2019-01-25T00:42:14.937Z,-0.96
2019-01-25T00:44:43.473Z,-0.86
2019-01-25T00:47:12.014Z,-0.67
2019-01-25T00:49:40.896Z,-0.42
2019-01-25T00:52:09.619Z,-0.17
2019-01-25T00:54:38.202Z,-0.15
2019-01-25T00:57:06.797Z,-0.10
2019-01-25T00:59:35.326Z,0.13
2019-01-25T01:02:03.964Z,-0.05
2019-01-25T01:04:32.512Z,-0.12
2019-01-25T01:07:01.152Z,-0.14
2019-01-25T01:09:29.739Z,-0.17
2019-01-25T01:11:58.190Z,-0.23
2019-01-25T01:14:27.702Z,-0.34
2019-01-25T01:16:56.239Z,-0.48
2019-01-25T01:19:24.839Z,-0.50
2019-01-25T01:21:53.302Z,-0.35
2019-01-25T01:24:21.757Z,-0.17
2019-01-25T01:26:50.343Z,0.11
2019-01-25T01:29:18.866Z,0.33
2019-01-25T01:31:47.372Z,0.28
2019-01-25T01:34:15.932Z,0.44
2019-01-25T01:36:44.508Z,0.38
2019-01-25T01:39:12.945Z,0.27
2019-01-25T01:41:41.511Z,0.12
2019-01-25T01:44:10.017Z,-0.25
2019-01-25T01:46:38.465Z,-0.40
2019-01-25T01:49:07.148Z,-0.68
2019-01-25T01:51:35.680Z,-0.47
2019-01-25T01:54:04.288Z,-0.48
2019-01-25T01:56:32.832Z,-0.50
2019-01-25T01:59:01.455Z,-0.79
2019-01-25T02:01:30.050Z,-0.62
2019-01-25T02:03:58.498Z,-0.25
2019-01-25T02:06:27.991Z,-0.05
2019-01-25T02:08:56.523Z,-0.01
2019-01-25T02:11:25.108Z,0.19
2019-01-25T02:13:53.664Z,-0.19
2019-01-25T02:16:22.262Z,-0.82
2019-01-25T02:18:50.831Z,-0.93
2019-01-25T02:21:19.334Z,-0.87
2019-01-25T02:23:47.910Z,-1.09
2019-01-25T02:26:16.379Z,-1.26
2019-01-25T02:28:44.885Z,-1.11
2019-01-25T02:31:13.501Z,-0.91
2019-01-25T02:33:42.075Z,-0.60
2019-01-25T02:36:10.581Z,-0.17
2019-01-25T02:38:39.210Z,0.22
2019-01-25T02:41:07.783Z,0.48
2019-01-25T02:43:36.380Z,0.42
2019-01-25T02:46:05.000Z,0.59
2019-01-25T02:48:33.613Z,0.49
2019-01-25T02:51:02.240Z,-0.16
2019-01-25T02:53:30.758Z,-0.69
2019-01-25T02:55:59.342Z,-1.03
2019-01-25T02:58:28.139Z,-1.20
2019-01-25T03:00:56.708Z,-1.37
2019-01-25T03:03:25.283Z,-1.14
2019-01-25T03:05:55.179Z,-0.89
2019-01-25T03:08:23.755Z,-0.58
2019-01-25T03:10:52.362Z,-0.15
2019-01-25T03:13:21.024Z,0.17
2019-01-25T03:15:49.615Z,0.34
2019-01-25T03:18:18.728Z,0.41
2019-01-25T03:20:47.335Z,0.56
2019-01-25T03:23:15.857Z,0.78
2019-01-25T03:25:44.416Z,0.67
2019-01-25T03:28:13.008Z,0.35
2019-01-25T03:30:41.639Z,-0.21
2019-01-25T03:33:10.257Z,-0.76
2019-01-25T03:35:38.762Z,-1.11
2019-01-25T03:38:07.387Z,-1.14
2019-01-25T03:40:36.011Z,-0.99
2019-01-25T03:43:04.732Z,-0.78
2019-01-25T03:45:33.357Z,-0.64
2019-01-25T03:48:02.056Z,-0.39
2019-01-25T03:50:30.972Z,-0.22
2019-01-25T03:52:59.645Z,0.27
2019-01-25T03:55:28.660Z,0.27
2019-01-25T03:57:57.164Z,0.36
2019-01-25T04:00:27.586Z,0.52
2019-01-25T04:02:56.179Z,0.41
2019-01-25T04:05:24.798Z,0.17
2019-01-25T04:07:53.387Z,-0.12
2019-01-25T04:10:24.069Z,-0.49
2019-01-25T04:12:52.687Z,-0.66
2019-01-25T04:15:23.799Z,-0.68
2019-01-25T04:17:52.352Z,-0.48
2019-01-25T04:20:22.339Z,-0.37
2019-01-25T04:22:51.057Z,-0.15
2019-01-25T04:25:21.370Z,0.14
2019-01-25T04:27:50.138Z,0.41
2019-01-25T04:30:29.385Z,0.45
2019-01-25T04:32:58.712Z,0.28
2019-01-25T04:35:27.315Z,0.41
2019-01-25T04:37:55.931Z,0.34
2019-01-25T04:40:24.515Z,0.08
2019-01-25T04:42:53.204Z,-0.38
2019-01-25T04:45:22.925Z,-0.76
2019-01-25T04:47:51.803Z,-0.99
2019-01-25T04:50:21.994Z,-0.97
2019-01-25T04:52:50.717Z,-0.75
2019-01-25T04:55:21.015Z,-0.55
2019-01-25T04:57:49.617Z,-0.28
2019-01-25T05:00:20.538Z,0.05
2019-01-25T05:02:57.014Z,0.10
2019-01-25T05:05:25.807Z,0.25
2019-01-25T05:08:02.982Z,0.24
2019-01-25T05:10:31.679Z,0.25
2019-01-25T05:13:00.257Z,0.42
2019-01-25T05:15:28.912Z,0.13
2019-01-25T05:17:57.522Z,-0.29
2019-01-25T05:20:26.174Z,-0.78
2019-01-25T05:22:56.569Z,-1.13
2019-01-25T05:25:26.456Z,-1.06
2019-01-25T05:27:55.248Z,-0.84
2019-01-25T05:30:24.578Z,-0.47
2019-01-25T05:32:53.704Z,-0.22
2019-01-25T05:35:22.328Z,0.06
2019-01-25T05:37:50.840Z,0.31
2019-01-25T05:40:25.004Z,0.52
2019-01-25T05:42:53.660Z,0.43
2019-01-25T05:45:22.285Z,0.33
2019-01-25T05:47:50.872Z,0.42
2019-01-25T05:50:19.487Z,0.37
2019-01-25T05:52:48.079Z,0.13
2019-01-25T05:55:18.397Z,-0.24
2019-01-25T05:57:47.030Z,-0.51
2019-01-25T06:00:17.301Z,-0.66
2019-01-25T06:02:45.892Z,-0.52
2019-01-25T06:05:14.565Z,-0.24
2019-01-25T06:07:44.123Z,-0.14
2019-01-25T06:10:13.571Z,-0.06
2019-01-25T06:12:42.192Z,0.17
2019-01-25T06:15:13.036Z,0.42
2019-01-25T06:17:41.653Z,0.51
2019-01-25T06:20:11.952Z,0.54
2019-01-25T06:22:40.569Z,0.49
2019-01-25T06:25:09.154Z,0.57
2019-01-25T06:27:39.346Z,0.24
2019-01-25T06:30:13.476Z,-0.08
2019-01-25T06:32:42.066Z,-0.37
2019-01-25T06:35:11.943Z,-0.20
2019-01-25T06:37:40.567Z,-0.05
2019-01-25T06:40:10.744Z,0.16
2019-01-25T06:42:39.388Z,0.21
2019-01-25T06:45:09.517Z,0.44
2019-01-25T06:47:38.144Z,0.36
2019-01-25T06:50:08.896Z,0.45
2019-01-25T06:52:37.525Z,0.66
2019-01-25T06:55:07.628Z,0.61
2019-01-25T06:57:37.897Z,0.49
2019-01-25T07:00:19.216Z,0.59
2019-01-25T07:02:47.794Z,0.47
2019-01-25T07:05:16.414Z,0.06
2019-01-25T07:07:46.614Z,-0.15
2019-01-25T07:10:19.863Z,-0.13
2019-01-25T07:12:48.475Z,0.06
2019-01-25T07:15:18.697Z,0.26
2019-01-25T07:17:47.303Z,0.13
2019-01-25T07:20:17.162Z,0.31
2019-01-25T07:22:45.798Z,0.63
2019-01-25T07:25:15.927Z,0.88
2019-01-25T07:27:44.509Z,1.15
2019-01-25T07:30:17.456Z,1.29
2019-01-25T07:32:46.027Z,1.13
2019-01-25T07:35:14.692Z,1.10
2019-01-25T07:37:43.326Z,1.25
2019-01-25T07:40:12.315Z,0.85
2019-01-25T07:42:41.122Z,0.17
2019-01-25T07:45:12.460Z,-0.01
2019-01-25T07:47:41.040Z,-0.17
2019-01-25T07:50:11.917Z,-0.01
2019-01-25T07:52:40.482Z,-0.12
2019-01-25T07:55:10.941Z,-0.27
2019-01-25T07:57:39.769Z,-0.21
2019-01-25T08:00:13.617Z,0.26
2019-01-25T08:02:42.245Z,0.47
2019-01-25T08:05:11.115Z,0.47
2019-01-25T08:07:39.822Z,0.56
2019-01-25T08:10:19.431Z,0.77
2019-01-25T08:12:48.052Z,1.00
2019-01-25T08:15:22.162Z,1.00
2019-01-25T08:17:50.767Z,0.80
2019-01-25T08:20:19.493Z,0.62
2019-01-25T08:22:48.308Z,0.46
2019-01-25T08:25:16.902Z,0.55
2019-01-25T08:27:45.476Z,0.75
2019-01-25T08:30:23.173Z,0.81
2019-01-25T08:32:51.981Z,1.04
2019-01-25T08:35:21.602Z,1.09
2019-01-25T08:37:50.178Z,1.09
2019-01-25T08:40:19.039Z,1.05
2019-01-25T08:42:47.727Z,0.98
2019-01-25T08:45:17.590Z,0.98
2019-01-25T08:47:46.318Z,1.23
2019-01-25T08:50:23.548Z,1.38
2019-01-25T08:52:52.228Z,1.21
2019-01-25T08:55:21.447Z,1.05
2019-01-25T08:57:50.520Z,0.80
2019-01-25T09:00:21.830Z,0.73
2019-01-25T09:02:50.642Z,0.93
2019-01-25T09:05:19.840Z,1.09
2019-01-25T09:07:48.370Z,1.15
2019-01-25T09:10:19.123Z,1.19
2019-01-25T09:12:47.710Z,1.18
2019-01-25T09:15:18.947Z,1.21
2019-01-25T09:17:47.578Z,1.26
2019-01-25T09:20:21.134Z,1.20
2019-01-25T09:22:49.828Z,1.36
2019-01-25T09:25:18.552Z,1.52
2019-01-25T09:27:47.764Z,1.52
2019-01-25T09:30:19.076Z,1.37
2019-01-25T09:32:47.729Z,1.14
2019-01-25T09:35:16.803Z,1.05
2019-01-25T09:37:45.505Z,1.06
2019-01-25T09:40:16.816Z,1.14
2019-01-25T09:42:45.396Z,1.35
2019-01-25T09:45:13.966Z,1.59
2019-01-25T09:47:42.596Z,1.54
2019-01-25T09:50:16.592Z,1.60
2019-01-25T09:52:45.182Z,1.68
2019-01-25T09:55:16.412Z,1.91
2019-01-25T09:57:45.042Z,2.03
2019-01-25T10:00:31.646Z,2.13
2019-01-25T10:03:00.164Z,2.29
2019-01-25T10:05:28.781Z,2.15
2019-01-25T10:07:57.301Z,1.89
2019-01-25T10:10:25.881Z,1.83
2019-01-25T10:12:54.431Z,1.80
2019-01-25T10:15:25.788Z,1.78
2019-01-25T10:17:54.408Z,1.90
2019-01-25T10:20:24.456Z,1.90
2019-01-25T10:22:53.064Z,1.79
2019-01-25T10:25:21.689Z,1.87
2019-01-25T10:27:50.270Z,1.84
2019-01-25T10:30:28.865Z,1.89
2019-01-25T10:32:57.466Z,1.90
2019-01-25T10:35:26.144Z,1.98
2019-01-25T10:37:54.787Z,2.27
2019-01-25T10:40:23.871Z,2.18
2019-01-25T10:42:53.648Z,2.02
2019-01-25T10:45:36.817Z,1.89
2019-01-25T10:48:06.579Z,1.87
2019-01-25T10:50:35.157Z,1.76
2019-01-25T10:53:03.865Z,1.80
2019-01-25T10:55:32.451Z,1.86
2019-01-25T10:58:01.002Z,1.84
2019-01-25T11:00:30.306Z,1.99
2019-01-25T11:02:58.826Z,2.18
2019-01-25T11:05:30.741Z,2.28
2019-01-25T11:08:00.170Z,2.31
2019-01-25T11:10:28.794Z,2.48
2019-01-25T11:13:01.078Z,2.48
2019-01-25T11:15:27.932Z,2.72
2019-01-25T11:17:56.578Z,2.51
2019-01-25T11:20:26.668Z,2.26
2019-01-25T11:22:55.349Z,2.01
2019-01-25T11:25:29.476Z,1.85
2019-01-25T11:27:58.020Z,1.99
2019-01-25T11:30:26.707Z,2.12
2019-01-25T11:32:55.290Z,2.27
2019-01-25T11:35:23.934Z,2.25
2019-01-25T11:37:53.122Z,2.24
2019-01-25T11:40:30.139Z,2.24
2019-01-25T11:42:58.757Z,2.32
2019-01-25T11:45:28.299Z,2.53
2019-01-25T11:47:56.863Z,2.67
2019-01-25T11:50:25.479Z,2.81
2019-01-25T11:52:54.096Z,2.84
2019-01-25T11:55:22.713Z,2.69
2019-01-25T11:57:51.354Z,2.52
2019-01-25T12:00:22.675Z,2.44
2019-01-25T12:02:51.337Z,2.40
2019-01-25T12:05:21.630Z,2.46
2019-01-25T12:07:50.368Z,2.58
2019-01-25T12:10:23.700Z,2.66
2019-01-25T12:12:52.277Z,2.74
2019-01-25T12:15:20.908Z,2.88
2019-01-25T12:17:49.481Z,2.86
2019-01-25T12:20:26.265Z,2.95
2019-01-25T12:22:54.990Z,3.05
2019-01-25T12:25:23.589Z,3.32
2019-01-25T12:27:52.181Z,3.53
2019-01-25T12:30:25.960Z,3.38
2019-01-25T12:32:54.555Z,3.16
2019-01-25T12:35:23.645Z,3.03
2019-01-25T12:37:52.237Z,2.93
2019-01-25T12:40:21.669Z,2.92
2019-01-25T12:42:50.376Z,2.97
2019-01-25T12:45:21.197Z,3.06
2019-01-25T12:47:49.795Z,3.19
2019-01-25T12:50:26.985Z,3.23
2019-01-25T12:52:55.595Z,3.23
2019-01-25T12:55:24.177Z,3.34
2019-01-25T12:57:52.738Z,3.57
2019-01-25T13:00:24.307Z,3.79
2019-01-25T13:02:53.443Z,4.03
2019-01-25T13:05:22.824Z,4.02
2019-01-25T13:07:51.415Z,3.77
2019-01-25T13:10:22.603Z,3.54
2019-01-25T13:12:51.277Z,3.34
2019-01-25T13:15:20.084Z,3.18
2019-01-25T13:17:48.669Z,3.16
2019-01-25T13:20:25.482Z,3.06
2019-01-25T13:22:54.267Z,3.09
2019-01-25T13:25:22.965Z,3.12
2019-01-25T13:27:51.562Z,3.31
2019-01-25T13:30:25.405Z,3.46
2019-01-25T13:32:53.997Z,3.36
2019-01-25T13:35:22.634Z,3.44
2019-01-25T13:37:51.495Z,3.58
2019-01-25T13:40:24.898Z,3.68
2019-01-25T13:42:53.600Z,3.57
2019-01-25T13:45:23.209Z,3.52
2019-01-25T13:47:56.668Z,3.45
2019-01-25T13:50:29.373Z,3.30
2019-01-25T13:53:05.711Z,3.22
2019-01-25T13:55:34.356Z,3.23
2019-01-25T13:58:02.941Z,3.34
2019-01-25T14:00:33.530Z,3.48
2019-01-25T14:03:02.182Z,3.69
2019-01-25T14:05:31.005Z,3.80
2019-01-25T14:07:59.688Z,3.81
2019-01-25T14:10:30.135Z,3.98
2019-01-25T14:12:58.840Z,3.98
2019-01-25T14:15:27.595Z,4.24
2019-01-25T14:17:56.280Z,4.29
2019-01-25T14:20:27.323Z,4.01
2019-01-25T14:22:55.923Z,3.74
2019-01-25T14:25:24.534Z,3.58
2019-01-25T14:27:52.925Z,3.63
2019-01-25T14:30:24.466Z,3.68
2019-01-25T14:32:53.092Z,3.74
2019-01-25T14:35:21.721Z,3.70
2019-01-25T14:37:50.314Z,3.67
2019-01-25T14:40:19.046Z,3.66
2019-01-25T14:42:47.650Z,3.70
2019-01-25T14:45:18.273Z,3.81
2019-01-25T14:47:46.913Z,3.85
2019-01-25T14:50:20.737Z,3.98
2019-01-25T14:52:49.372Z,4.14
2019-01-25T14:55:18.042Z,4.04
2019-01-25T14:57:46.636Z,3.81
2019-01-25T15:00:16.092Z,3.59
2019-01-25T15:02:44.780Z,3.40
2019-01-25T15:05:18.271Z,3.47
2019-01-25T15:07:46.873Z,3.46
2019-01-25T15:10:17.447Z,3.51
2019-01-25T15:12:46.570Z,3.64
2019-01-25T15:15:15.649Z,3.71
2019-01-25T15:17:44.265Z,3.69
2019-01-25T15:20:15.872Z,3.63
2019-01-25T15:22:44.490Z,3.56
2019-01-25T15:25:13.217Z,3.65
2019-01-25T15:27:41.878Z,3.90
2019-01-25T15:30:19.009Z,3.98
2019-01-25T15:32:47.645Z,3.74
2019-01-25T15:35:17.852Z,3.53
2019-01-25T15:37:46.452Z,3.37
2019-01-25T15:40:17.595Z,3.28
2019-01-25T15:42:46.299Z,3.21
2019-01-25T15:45:17.345Z,3.11
2019-01-25T15:47:45.955Z,2.93
2019-01-25T15:50:23.023Z,2.81
2019-01-25T15:52:51.575Z,2.77
2019-01-25T15:55:20.857Z,2.85
2019-01-25T15:57:49.456Z,2.96
2019-01-25T16:00:23.560Z,3.05
2019-01-25T16:02:52.367Z,3.19
2019-01-25T16:05:22.040Z,3.49
2019-01-25T16:07:50.667Z,3.37
2019-01-25T16:10:21.593Z,3.13
2019-01-25T16:12:50.597Z,3.00
2019-01-25T16:15:22.126Z,2.83
2019-01-25T16:17:51.091Z,2.84
2019-01-25T16:20:19.859Z,2.89
2019-01-25T16:22:49.931Z,3.01
2019-01-25T16:25:21.330Z,2.98
2019-01-25T16:27:49.951Z,3.00
2019-01-25T16:30:21.246Z,3.06
2019-01-25T16:32:49.884Z,3.00
2019-01-25T16:35:18.466Z,3.03
2019-01-25T16:37:47.744Z,3.08
2019-01-25T16:40:18.878Z,3.20
2019-01-25T16:42:47.469Z,3.28
2019-01-25T16:45:18.838Z,3.07
2019-01-25T16:47:47.485Z,2.87
2019-01-25T16:50:23.576Z,2.74
2019-01-25T16:52:47.142Z,2.70
2019-01-25T16:55:16.434Z,2.87
2019-01-25T16:57:45.075Z,2.92
2019-01-25T17:00:16.582Z,2.92
2019-01-25T17:02:45.206Z,2.91
2019-01-25T17:05:13.994Z,2.96
2019-01-25T17:07:42.668Z,2.94
2019-01-25T17:10:13.426Z,2.93
2019-01-25T17:12:42.063Z,2.99
2019-01-25T17:15:11.665Z,3.02
2019-01-25T17:17:40.295Z,3.30
2019-01-25T17:20:18.433Z,3.23
2019-01-25T17:22:42.088Z,3.11
2019-01-25T17:25:12.972Z,2.88
2019-01-25T17:27:41.630Z,2.82
2019-01-25T17:30:27.557Z,2.86
2019-01-25T17:32:57.756Z,2.91
2019-01-25T17:35:26.350Z,2.91
2019-01-25T17:37:55.023Z,2.92
2019-01-25T17:40:29.041Z,2.90
2019-01-25T17:42:57.801Z,2.82
2019-01-25T17:45:26.423Z,2.88
2019-01-25T17:47:55.245Z,2.88
2019-01-25T17:50:23.863Z,2.93
2019-01-25T17:52:52.593Z,3.16
2019-01-25T17:55:21.253Z,3.37
2019-01-25T17:57:49.876Z,3.22
2019-01-25T18:00:25.563Z,3.04
2019-01-25T18:02:54.147Z,2.91
2019-01-25T18:05:22.853Z,2.84
2019-01-25T18:07:51.515Z,2.82
2019-01-25T18:10:22.307Z,2.88
2019-01-25T18:12:51.032Z,2.90
2019-01-25T18:15:19.722Z,2.89
2019-01-25T18:17:48.478Z,2.92
2019-01-25T18:20:21.603Z,2.90
2019-01-25T18:22:50.174Z,2.93
2019-01-25T18:25:31.046Z,2.97
2019-01-25T18:28:02.163Z,3.03
2019-01-25T18:30:43.074Z,3.39
2019-01-25T18:33:11.734Z,3.40
2019-01-25T18:35:40.335Z,3.30
2019-01-25T18:38:08.979Z,3.10
2019-01-25T18:40:37.619Z,3.05
2019-01-25T18:43:06.973Z,2.94
2019-01-25T18:45:35.630Z,2.92
2019-01-25T18:48:04.648Z,3.01
2019-01-25T18:50:34.250Z,3.08
2019-01-25T18:53:02.859Z,3.11
2019-01-25T18:55:32.029Z,3.15
2019-01-25T18:58:00.687Z,3.17
2019-01-25T19:00:29.310Z,3.25
2019-01-25T19:02:57.927Z,3.33
2019-01-25T19:05:26.479Z,3.36
2019-01-25T19:07:55.034Z,3.53
2019-01-25T19:10:28.605Z,3.55
2019-01-25T19:12:57.332Z,3.40
2019-01-25T19:15:30.633Z,3.27
2019-01-25T19:17:59.370Z,3.13
2019-01-25T19:20:28.075Z,3.20
2019-01-25T19:22:56.708Z,3.30
2019-01-25T19:25:25.308Z,3.38
2019-01-25T19:27:54.002Z,3.33
2019-01-25T19:30:25.592Z,3.31
2019-01-25T19:32:54.228Z,3.34
2019-01-25T19:35:22.827Z,3.35
2019-01-25T19:37:51.521Z,3.27
2019-01-25T19:40:28.945Z,3.30
2019-01-25T19:42:57.562Z,3.42
2019-01-25T19:45:26.269Z,3.91
2019-01-25T19:47:54.853Z,3.74
2019-01-25T19:50:24.399Z,3.47
2019-01-25T19:52:52.980Z,3.38
2019-01-25T19:55:24.142Z,3.38
2019-01-25T19:57:52.878Z,3.44
2019-01-25T20:00:29.978Z,3.45
2019-01-25T20:02:58.657Z,3.44
2019-01-25T20:05:29.768Z,3.56
2019-01-25T20:07:58.440Z,3.54
2019-01-25T20:10:27.344Z,3.57
2019-01-25T20:12:56.114Z,3.57
2019-01-25T20:15:26.456Z,3.58
2019-01-25T20:17:55.059Z,3.63
2019-01-25T20:20:32.292Z,4.01
2019-01-25T20:23:00.938Z,4.04
2019-01-25T20:25:29.540Z,3.88
2019-01-25T20:27:58.706Z,3.73
2019-01-25T20:30:32.160Z,3.54
2019-01-25T20:33:01.858Z,3.53
2019-01-25T20:35:33.088Z,3.55
2019-01-25T20:38:01.738Z,3.63
2019-01-25T20:40:30.346Z,3.55
2019-01-25T20:42:59.069Z,3.66
2019-01-25T20:45:41.895Z,3.75
2019-01-25T20:48:10.625Z,3.72
2019-01-25T20:50:39.765Z,3.84
2019-01-25T20:53:13.706Z,3.89
2019-01-25T20:55:43.271Z,3.97
2019-01-25T20:58:11.963Z,4.37
2019-01-25T21:00:41.333Z,4.23
2019-01-25T21:03:12.819Z,3.95
2019-01-25T21:05:41.422Z,3.72
2019-01-25T21:08:10.599Z,3.53
2019-01-25T21:10:39.267Z,3.62
2019-01-25T21:13:07.887Z,3.63
2019-01-25T21:15:36.556Z,3.64
2019-01-25T21:18:05.989Z,3.78
2019-01-25T21:20:40.190Z,3.85
2019-01-25T21:23:08.812Z,3.90
2019-01-25T21:25:37.531Z,3.87
2019-01-25T21:28:06.434Z,3.95
2019-01-25T21:30:36.696Z,3.99
2019-01-25T21:33:05.848Z,4.24
2019-01-25T21:35:34.456Z,4.52
2019-01-25T21:38:03.103Z,4.24
2019-01-25T21:40:33.268Z,3.99
2019-01-25T21:43:01.863Z,3.87
2019-01-25T21:45:32.383Z,3.89
2019-01-25T21:48:01.228Z,3.81
2019-01-25T21:50:32.510Z,3.88
2019-01-25T21:53:01.143Z,3.96
2019-01-25T21:55:29.737Z,4.02
2019-01-25T21:57:58.371Z,4.09
2019-01-25T22:00:32.332Z,4.25
2019-01-25T22:03:00.976Z,4.37
2019-01-25T22:05:29.669Z,4.33
2019-01-25T22:07:58.312Z,4.38
2019-01-25T22:10:32.605Z,4.69
2019-01-25T22:13:01.241Z,4.73
2019-01-25T22:15:29.902Z,4.56
2019-01-25T22:17:58.531Z,4.38
2019-01-25T22:20:28.741Z,4.21
2019-01-25T22:22:57.723Z,4.21
2019-01-25T22:25:26.461Z,4.18
2019-01-25T22:27:55.695Z,4.18
2019-01-25T22:30:25.958Z,4.23
2019-01-25T22:32:54.685Z,4.28
2019-01-25T22:35:23.300Z,4.33
2019-01-25T22:37:53.208Z,4.39
2019-01-25T22:40:24.485Z,4.40
2019-01-25T22:42:53.052Z,4.48
2019-01-25T22:45:24.025Z,4.61
2019-01-25T22:47:52.654Z,5.12
2019-01-25T22:50:23.280Z,5.14
2019-01-25T22:52:52.122Z,4.89
2019-01-25T22:55:21.955Z,4.73
2019-01-25T22:57:50.743Z,4.57
2019-01-25T23:00:49.107Z,4.60
2019-01-25T23:03:20.850Z,4.67
2019-01-25T23:06:13.149Z,4.76
2019-01-25T23:08:41.730Z,4.76
2019-01-25T23:11:10.875Z,4.84
2019-01-25T23:13:39.497Z,4.81
2019-01-25T23:16:08.213Z,4.83
2019-01-25T23:18:36.813Z,4.75
2019-01-25T23:21:05.550Z,4.89
2019-01-25T23:23:34.099Z,5.07
2019-01-25T23:26:02.738Z,5.30
2019-01-25T23:28:31.347Z,5.15
2019-01-25T23:31:00.393Z,5.12
2019-01-25T23:33:29.052Z,5.01
2019-01-25T23:35:57.772Z,4.84
2019-01-25T23:38:26.333Z,4.85
2019-01-25T23:40:55.027Z,4.90
2019-01-25T23:43:23.692Z,4.92
2019-01-25T23:45:52.377Z,4.99
2019-01-25T23:48:20.959Z,5.04
2019-01-25T23:50:49.521Z,5.19
2019-01-25T23:53:18.130Z,5.15
2019-01-25T23:55:46.726Z,5.15
2019-01-25T23:58:15.285Z,5.25
